Terminal Aerodrome Forecast
Issued by NWS

Home | Current Version | Previous Version | Text Only | Print | Product List | Glossary On
Versions: 1 2 3 4 5 6 7 8 9 10 11 12 13 14 15 16 17
842
FTUS42 KTAE 031342 AAA
TAFVLD
TAF AMD
KVLD 031342Z 0314/0412 19004KT P6SM SCT012
      TEMPO 0314/0315 BKN012
     FM031500 21007KT P6SM BKN030
     FM032100 24008KT 5SM TSRA BKN035CB
     FM040500 00000KT P6SM -RA BKN040
     FM040600 19002KT P6SM OVC007=

USA.gov is the U.S. government's official web portal to all federal, state and local government web resources and services.